createdAt,value
2019-01-25T00:01:38.497Z,23.23
2019-01-25T00:04:06.905Z,22.00
2019-01-25T00:06:35.077Z,23.07
2019-01-25T00:09:07.824Z,23.07
2019-01-25T00:11:36.369Z,21.97
2019-01-25T00:14:04.900Z,21.37
2019-01-25T00:16:33.008Z,20.97
2019-01-25T00:19:01.747Z,21.17
2019-01-25T00:21:30.203Z,22.00
2019-01-25T00:24:07.323Z,20.83
2019-01-25T00:26:37.260Z,21.73
2019-01-25T00:29:05.493Z,22.30
2019-01-25T00:31:33.608Z,22.30
2019-01-25T00:34:01.919Z,20.70
2019-01-25T00:36:30.101Z,23.00
2019-01-25T00:38:58.338Z,21.30
2019-01-25T00:41:26.506Z,23.30
2019-01-25T00:43:54.838Z,21.63
2019-01-25T00:46:23.099Z,20.13
2019-01-25T00:48:51.293Z,20.87
2019-01-25T00:51:19.606Z,21.50
2019-01-25T00:53:48.050Z,20.23
2019-01-25T00:56:16.261Z,21.13
2019-01-25T00:58:44.578Z,22.40
2019-01-25T01:01:12.851Z,21.37
2019-01-25T01:03:41.103Z,21.07
2019-01-25T01:06:10.030Z,20.97
2019-01-25T01:08:38.494Z,21.67
2019-01-25T01:11:06.669Z,20.13
2019-01-25T01:13:35.018Z,20.47
2019-01-25T01:16:03.225Z,21.73
2019-01-25T01:18:31.490Z,22.10
2019-01-25T01:20:59.601Z,19.77
2019-01-25T01:23:27.818Z,20.30
2019-01-25T01:25:55.990Z,20.17
2019-01-25T01:28:24.214Z,20.37
2019-01-25T01:30:52.672Z,20.40
2019-01-25T01:33:20.883Z,20.23
2019-01-25T01:35:49.231Z,20.40
2019-01-25T01:38:17.706Z,19.47
2019-01-25T01:40:45.919Z,20.07
2019-01-25T01:43:14.038Z,20.83
2019-01-25T01:45:42.214Z,19.67
2019-01-25T01:48:10.409Z,20.87
2019-01-25T01:50:38.609Z,20.30
2019-01-25T01:53:06.841Z,20.13
2019-01-25T01:55:35.024Z,21.70
2019-01-25T01:58:03.137Z,20.30
2019-01-25T02:00:31.260Z,20.43
2019-01-25T02:02:59.467Z,21.27
2019-01-25T02:05:27.703Z,20.60
2019-01-25T02:07:55.842Z,20.67
2019-01-25T02:10:29.345Z,20.67
2019-01-25T02:12:54.783Z,19.47
2019-01-25T02:15:23.302Z,21.17
2019-01-25T02:17:51.616Z,19.90
2019-01-25T02:20:21.121Z,20.83
2019-01-25T02:22:49.383Z,21.80
2019-01-25T02:25:17.651Z,20.87
2019-01-25T02:27:45.990Z,19.73
2019-01-25T02:30:15.683Z,20.57
2019-01-25T02:32:43.922Z,21.33
2019-01-25T02:35:12.251Z,21.83
2019-01-25T02:37:40.601Z,21.23
2019-01-25T02:40:15.018Z,22.13
2019-01-25T02:42:43.152Z,22.93
2019-01-25T02:45:12.264Z,22.57
2019-01-25T02:47:40.466Z,20.20
2019-01-25T02:50:10.525Z,22.03
2019-01-25T02:52:38.830Z,21.53
2019-01-25T02:55:08.102Z,20.47
2019-01-25T02:57:36.297Z,21.17
2019-01-25T03:00:12.291Z,21.77
2019-01-25T03:02:40.478Z,21.57
2019-01-25T03:05:08.941Z,22.80
2019-01-25T03:07:37.181Z,22.37
2019-01-25T03:10:06.926Z,20.83
2019-01-25T03:12:35.170Z,23.53
2019-01-25T03:15:04.687Z,21.53
2019-01-25T03:17:32.946Z,19.40
2019-01-25T03:20:02.692Z,21.80
2019-01-25T03:22:30.843Z,22.60
2019-01-25T03:24:59.009Z,20.83
2019-01-25T03:27:27.337Z,21.27
2019-01-25T03:29:55.548Z,21.77
2019-01-25T03:32:23.743Z,21.87
2019-01-25T03:34:52.047Z,22.20
2019-01-25T03:37:20.245Z,23.57
2019-01-25T03:39:48.441Z,22.13
2019-01-25T03:42:16.623Z,20.73
2019-01-25T03:44:44.748Z,22.10
2019-01-25T03:47:12.861Z,22.97
2019-01-25T03:49:41.201Z,19.97
2019-01-25T03:52:09.305Z,21.23
2019-01-25T03:54:37.655Z,21.83
2019-01-25T03:57:05.940Z,21.77
2019-01-25T03:59:34.243Z,21.07
2019-01-25T04:02:02.433Z,21.43
2019-01-25T04:04:30.746Z,20.33
2019-01-25T04:06:58.862Z,21.20
2019-01-25T04:09:26.972Z,21.57
2019-01-25T04:11:55.145Z,20.63
2019-01-25T04:14:23.322Z,21.13
2019-01-25T04:16:51.493Z,19.87
2019-01-25T04:19:21.360Z,20.83
2019-01-25T04:21:49.537Z,20.47
2019-01-25T04:24:17.999Z,22.63
2019-01-25T04:26:46.341Z,20.80
2019-01-25T04:29:14.510Z,20.63
2019-01-25T04:31:42.754Z,19.37
2019-01-25T04:34:11.065Z,20.67
2019-01-25T04:36:39.298Z,20.87
2019-01-25T04:39:07.780Z,20.70
2019-01-25T04:41:35.998Z,22.13
2019-01-25T04:44:04.510Z,21.57
2019-01-25T04:46:32.787Z,22.33
2019-01-25T04:49:00.980Z,22.40
2019-01-25T04:51:29.137Z,22.07
2019-01-25T04:53:57.376Z,21.10
2019-01-25T04:56:25.581Z,19.83
2019-01-25T04:58:53.913Z,21.10
2019-01-25T05:01:22.101Z,22.07
2019-01-25T05:03:50.272Z,21.23
2019-01-25T05:06:18.631Z,20.73
2019-01-25T05:08:46.823Z,22.17
2019-01-25T05:11:20.076Z,21.80
2019-01-25T05:13:45.325Z,21.07
2019-01-25T05:16:15.216Z,23.77
2019-01-25T05:18:43.486Z,20.83
2019-01-25T05:21:13.906Z,21.40
2019-01-25T05:23:42.282Z,35.33
2019-01-25T05:26:17.169Z,26.93
2019-01-25T05:28:45.813Z,28.50
2019-01-25T05:31:14.594Z,26.50
2019-01-25T05:33:51.993Z,25.17
2019-01-25T05:36:25.854Z,22.13
2019-01-25T05:38:54.028Z,22.07
2019-01-25T05:41:28.259Z,21.73
2019-01-25T05:43:52.243Z,22.93
2019-01-25T05:46:20.445Z,22.20
2019-01-25T05:48:48.658Z,22.43
2019-01-25T05:51:16.870Z,23.10
2019-01-25T05:53:48.417Z,22.87
2019-01-25T05:56:19.356Z,23.13
2019-01-25T05:58:47.477Z,23.13
2019-01-25T06:01:15.701Z,20.30
2019-01-25T06:03:43.914Z,22.03
2019-01-25T06:06:12.186Z,21.83
2019-01-25T06:08:44.049Z,21.97
2019-01-25T06:11:12.574Z,21.73
2019-01-25T06:13:43.902Z,23.00
2019-01-25T06:16:12.153Z,21.53
2019-01-25T06:18:40.327Z,21.63
2019-01-25T06:21:09.989Z,22.07
2019-01-25T06:23:38.116Z,20.90
2019-01-25T06:26:06.318Z,22.13
2019-01-25T06:28:34.521Z,22.23
2019-01-25T06:31:02.788Z,23.37
2019-01-25T06:33:31.130Z,24.37
2019-01-25T06:35:59.554Z,23.10
2019-01-25T06:38:27.770Z,22.90
2019-01-25T06:40:56.116Z,23.63
2019-01-25T06:43:24.235Z,22.80
2019-01-25T06:45:52.469Z,21.13
2019-01-25T06:48:20.780Z,24.17
2019-01-25T06:50:50.104Z,23.83
2019-01-25T06:53:18.453Z,40.93
2019-01-25T06:55:47.020Z,22.37
2019-01-25T06:58:19.728Z,21.37
2019-01-25T07:00:52.598Z,23.97
2019-01-25T07:03:20.801Z,20.97
2019-01-25T07:05:48.969Z,21.57
2019-01-25T07:08:18.869Z,22.90
2019-01-25T07:10:47.008Z,22.50
2019-01-25T07:13:15.246Z,23.27
2019-01-25T07:15:43.490Z,23.40
2019-01-25T07:18:11.647Z,23.43
2019-01-25T07:20:40.021Z,21.27
2019-01-25T07:23:08.253Z,22.60
2019-01-25T07:25:36.437Z,21.30
2019-01-25T07:28:04.675Z,22.90
2019-01-25T07:30:33.030Z,21.40
2019-01-25T07:33:01.638Z,23.87
2019-01-25T07:35:29.797Z,21.67
2019-01-25T07:37:58.156Z,23.30
2019-01-25T07:40:26.432Z,24.87
2019-01-25T07:42:54.595Z,23.20
2019-01-25T07:45:22.729Z,31.43
2019-01-25T07:47:50.977Z,23.07
2019-01-25T07:50:19.236Z,25.23
2019-01-25T07:52:47.540Z,24.33
2019-01-25T07:55:15.761Z,25.47
2019-01-25T07:57:44.014Z,25.67
2019-01-25T08:00:13.456Z,23.30
2019-01-25T08:02:42.099Z,24.37
2019-01-25T08:05:10.684Z,24.37
2019-01-25T08:07:41.973Z,25.40
2019-01-25T08:10:20.187Z,21.27
2019-01-25T08:12:48.531Z,19.40
2019-01-25T08:15:18.429Z,18.97
2019-01-25T08:17:46.889Z,19.50
2019-01-25T08:20:15.400Z,20.27
2019-01-25T08:22:43.618Z,19.87
2019-01-25T08:25:11.908Z,21.03
2019-01-25T08:27:40.278Z,21.57
2019-01-25T08:30:09.962Z,22.37
2019-01-25T08:32:38.125Z,21.97
2019-01-25T08:35:08.116Z,23.27
2019-01-25T08:37:36.305Z,24.63
2019-01-25T08:40:05.954Z,25.63
2019-01-25T08:42:34.449Z,25.80
2019-01-25T08:45:02.713Z,26.80
2019-01-25T08:47:31.154Z,25.67
2019-01-25T08:50:02.551Z,32.50
2019-01-25T08:52:30.919Z,25.90
2019-01-25T08:54:59.408Z,25.80
2019-01-25T08:57:31.161Z,29.03
2019-01-25T08:59:59.468Z,26.63
2019-01-25T09:02:27.775Z,26.93
2019-01-25T09:04:57.219Z,27.53
2019-01-25T09:07:26.621Z,26.27
2019-01-25T09:09:55.203Z,26.17
2019-01-25T09:12:23.672Z,25.93
2019-01-25T09:14:52.232Z,27.00
2019-01-25T09:17:21.020Z,26.40
2019-01-25T09:19:49.490Z,38.83
2019-01-25T09:22:17.737Z,33.73
2019-01-25T09:24:46.112Z,25.57
2019-01-25T09:27:14.637Z,26.37
2019-01-25T09:29:42.944Z,26.43
2019-01-25T09:32:11.347Z,27.03
2019-01-25T09:34:39.741Z,25.20
2019-01-25T09:37:07.929Z,25.37
2019-01-25T09:39:36.227Z,24.23
2019-01-25T09:42:04.464Z,23.07
2019-01-25T09:44:32.592Z,28.07
2019-01-25T09:47:00.726Z,27.27
2019-01-25T09:49:32.765Z,25.90
2019-01-25T09:52:01.181Z,25.53
2019-01-25T09:54:29.412Z,26.80
2019-01-25T09:56:57.622Z,24.77
2019-01-25T09:59:25.920Z,23.17
2019-01-25T10:01:54.418Z,26.60
2019-01-25T10:04:26.765Z,25.47
2019-01-25T10:06:55.217Z,25.67
2019-01-25T10:09:23.460Z,21.53
2019-01-25T10:11:51.670Z,23.87
2019-01-25T10:14:19.934Z,24.40
2019-01-25T10:16:48.073Z,23.67
2019-01-25T10:19:16.302Z,25.53
2019-01-25T10:21:44.781Z,22.97
2019-01-25T10:24:12.935Z,21.77
2019-01-25T10:26:41.378Z,24.63
2019-01-25T10:29:09.594Z,23.80
2019-01-25T10:31:38.211Z,24.13
2019-01-25T10:34:06.418Z,26.30
2019-01-25T10:36:34.797Z,25.37
2019-01-25T10:39:04.674Z,22.80
2019-01-25T10:41:33.011Z,22.20
2019-01-25T10:44:01.159Z,22.07
2019-01-25T10:46:29.714Z,22.10
2019-01-25T10:48:57.932Z,21.50
2019-01-25T10:51:26.094Z,32.17
2019-01-25T10:53:54.601Z,21.23
2019-01-25T10:56:22.740Z,19.93
2019-01-25T10:58:50.888Z,21.17
2019-01-25T11:01:19.088Z,21.07
2019-01-25T11:03:47.205Z,23.00
2019-01-25T11:06:15.406Z,21.13
2019-01-25T11:08:43.580Z,21.53
2019-01-25T11:11:11.712Z,19.53
2019-01-25T11:13:40.008Z,17.20
2019-01-25T11:16:11.909Z,16.27
2019-01-25T11:18:38.116Z,16.67
2019-01-25T11:21:07.887Z,17.73
2019-01-25T11:23:36.021Z,16.07
2019-01-25T11:26:04.571Z,15.53
2019-01-25T11:28:32.693Z,14.03
2019-01-25T11:31:00.849Z,13.73
2019-01-25T11:33:29.149Z,15.27
2019-01-25T11:35:57.267Z,12.17
2019-01-25T11:38:25.410Z,14.87
2019-01-25T11:40:53.688Z,11.37
2019-01-25T11:43:21.860Z,13.33
2019-01-25T11:45:54.434Z,15.20
2019-01-25T11:48:22.774Z,14.50
2019-01-25T11:50:52.674Z,14.60
2019-01-25T11:53:20.882Z,13.93
2019-01-25T11:55:52.010Z,14.90
2019-01-25T11:58:23.101Z,14.70
2019-01-25T12:00:51.708Z,14.13
2019-01-25T12:03:22.597Z,13.73
2019-01-25T12:05:50.879Z,17.47
2019-01-25T12:08:21.615Z,16.17
2019-01-25T12:10:53.445Z,16.30
2019-01-25T12:13:21.664Z,10.50
2019-01-25T12:15:51.383Z,13.30
2019-01-25T12:18:19.763Z,14.73
2019-01-25T12:20:49.980Z,14.77
2019-01-25T12:23:18.132Z,13.80
2019-01-25T12:25:47.991Z,14.27
2019-01-25T12:28:16.327Z,14.57
2019-01-25T12:30:45.052Z,15.20
2019-01-25T12:33:13.242Z,15.33
2019-01-25T12:35:41.441Z,15.13
2019-01-25T12:38:09.564Z,15.60
2019-01-25T12:40:41.815Z,14.90
2019-01-25T12:43:07.611Z,14.50
2019-01-25T12:45:35.802Z,16.70
2019-01-25T12:48:05.513Z,20.83
2019-01-25T12:50:41.111Z,14.90
2019-01-25T12:53:10.333Z,15.53
2019-01-25T12:55:38.557Z,16.83
2019-01-25T12:58:06.862Z,16.27
2019-01-25T13:00:34.994Z,16.50
2019-01-25T13:03:03.802Z,15.53
2019-01-25T13:05:32.029Z,15.03
2019-01-25T13:08:00.164Z,17.10
2019-01-25T13:10:28.560Z,16.43
2019-01-25T13:12:56.901Z,14.77
2019-01-25T13:15:27.740Z,16.13
2019-01-25T13:17:55.928Z,17.53
2019-01-25T13:20:25.238Z,18.73
2019-01-25T13:22:53.561Z,19.20
2019-01-25T13:25:22.046Z,18.43
2019-01-25T13:27:51.545Z,16.20
2019-01-25T13:30:24.110Z,18.17
2019-01-25T13:32:52.311Z,17.30
2019-01-25T13:35:20.435Z,17.83
2019-01-25T13:37:48.650Z,15.30
2019-01-25T13:40:18.329Z,16.23
2019-01-25T13:42:46.742Z,17.47
2019-01-25T13:45:16.141Z,16.67
2019-01-25T13:47:44.486Z,15.97
2019-01-25T13:50:13.826Z,16.10
2019-01-25T13:52:41.997Z,18.53
2019-01-25T13:55:11.465Z,18.07
2019-01-25T13:57:39.924Z,18.93
2019-01-25T14:00:09.627Z,18.93
2019-01-25T14:02:37.753Z,19.33
2019-01-25T14:05:07.037Z,21.10
2019-01-25T14:07:35.166Z,18.20
2019-01-25T14:10:04.849Z,18.57
2019-01-25T14:12:33.079Z,19.40
2019-01-25T14:15:01.209Z,19.23
2019-01-25T14:17:29.349Z,18.57
2019-01-25T14:19:57.456Z,20.63
2019-01-25T14:22:27.253Z,19.63
2019-01-25T14:24:55.381Z,18.80
2019-01-25T14:27:23.502Z,20.77
2019-01-25T14:29:51.614Z,20.67
2019-01-25T14:32:19.732Z,18.53
2019-01-25T14:34:47.902Z,20.50
2019-01-25T14:37:16.132Z,23.47
2019-01-25T14:39:44.493Z,23.13
2019-01-25T14:42:12.609Z,21.27
2019-01-25T14:44:40.743Z,23.07
2019-01-25T14:47:09.015Z,23.23
2019-01-25T14:49:37.223Z,20.80
2019-01-25T14:52:05.364Z,20.27
2019-01-25T14:54:33.500Z,20.67
2019-01-25T14:57:01.727Z,21.03
2019-01-25T14:59:29.965Z,20.23
2019-01-25T15:01:58.141Z,20.90
2019-01-25T15:04:26.253Z,20.57
2019-01-25T15:06:54.467Z,23.63
2019-01-25T15:09:22.678Z,16.13
2019-01-25T15:11:52.498Z,21.77
2019-01-25T15:14:20.668Z,20.30
2019-01-25T15:16:48.925Z,21.30
2019-01-25T15:19:17.085Z,21.80
2019-01-25T15:21:45.343Z,19.70
2019-01-25T15:24:13.586Z,22.07
2019-01-25T15:26:41.821Z,19.37
2019-01-25T15:29:10.023Z,19.47
2019-01-25T15:31:38.143Z,20.63
2019-01-25T15:34:06.918Z,24.00
2019-01-25T15:36:35.165Z,23.60
2019-01-25T15:39:06.538Z,16.97
2019-01-25T15:41:34.790Z,21.63
2019-01-25T15:44:09.844Z,23.97
2019-01-25T15:46:32.877Z,22.53
2019-01-25T15:49:01.088Z,21.80
2019-01-25T15:51:29.251Z,22.07
2019-01-25T15:53:57.368Z,23.43
2019-01-25T15:56:25.521Z,23.97
2019-01-25T15:58:53.673Z,19.70
2019-01-25T16:01:21.820Z,22.40
2019-01-25T16:03:49.957Z,21.83
2019-01-25T16:06:18.085Z,22.53
2019-01-25T16:08:47.799Z,23.40
2019-01-25T16:11:15.925Z,21.73
2019-01-25T16:13:44.073Z,22.30
2019-01-25T16:16:12.184Z,23.07
2019-01-25T16:18:40.333Z,25.00
2019-01-25T16:21:08.469Z,23.63
2019-01-25T16:23:36.589Z,23.97
2019-01-25T16:26:04.803Z,25.80
2019-01-25T16:28:33.183Z,24.43
2019-01-25T16:31:04.496Z,22.40
2019-01-25T16:33:34.736Z,22.77
2019-01-25T16:36:02.756Z,24.83
2019-01-25T16:38:31.349Z,23.70
2019-01-25T16:40:59.506Z,23.97
2019-01-25T16:43:27.621Z,22.93
2019-01-25T16:45:55.737Z,21.87
2019-01-25T16:48:23.892Z,24.13
2019-01-25T16:50:52.132Z,24.30
2019-01-25T16:53:20.273Z,24.07
2019-01-25T16:55:48.453Z,25.87
2019-01-25T16:58:16.574Z,24.00
2019-01-25T17:00:44.690Z,24.07
2019-01-25T17:03:12.853Z,23.47
2019-01-25T17:05:41.120Z,22.97
2019-01-25T17:08:09.350Z,24.23
2019-01-25T17:10:41.057Z,22.87
2019-01-25T17:13:09.441Z,26.17
2019-01-25T17:15:37.580Z,25.70
2019-01-25T17:18:06.069Z,24.27
2019-01-25T17:20:34.242Z,24.80
2019-01-25T17:23:02.445Z,24.23
2019-01-25T17:25:30.589Z,25.93
2019-01-25T17:27:58.708Z,25.00
2019-01-25T17:30:27.924Z,24.80
2019-01-25T17:32:56.917Z,24.37
2019-01-25T17:35:25.331Z,24.03
2019-01-25T17:37:53.463Z,24.03
2019-01-25T17:40:23.210Z,25.67
2019-01-25T17:42:51.361Z,25.50
2019-01-25T17:45:19.613Z,25.73
2019-01-25T17:47:47.762Z,24.57
2019-01-25T17:50:16.096Z,24.43
2019-01-25T17:52:44.375Z,25.13
2019-01-25T17:55:14.063Z,24.13
2019-01-25T17:57:42.357Z,25.70
2019-01-25T18:00:12.286Z,26.33
2019-01-25T18:02:40.444Z,27.13
2019-01-25T18:05:08.560Z,26.57
2019-01-25T18:07:36.854Z,30.73
2019-01-25T18:10:06.670Z,58.43
2019-01-25T18:12:34.961Z,33.67
2019-01-25T18:15:03.141Z,28.00
2019-01-25T18:17:31.297Z,26.80
2019-01-25T18:19:59.447Z,29.10
2019-01-25T18:22:27.614Z,26.80
2019-01-25T18:24:55.784Z,25.87
2019-01-25T18:27:23.941Z,25.97
2019-01-25T18:29:52.137Z,23.50
2019-01-25T18:32:20.366Z,25.70
2019-01-25T18:34:48.565Z,27.57
2019-01-25T18:37:16.806Z,25.07
2019-01-25T18:39:45.008Z,27.23
2019-01-25T18:42:13.227Z,26.33
2019-01-25T18:44:41.371Z,26.07
2019-01-25T18:47:09.493Z,26.27
2019-01-25T18:49:37.651Z,26.57
2019-01-25T18:52:07.797Z,26.17
2019-01-25T18:54:35.639Z,25.27
2019-01-25T18:57:03.793Z,25.07
2019-01-25T18:59:31.923Z,26.13
2019-01-25T19:02:00.077Z,24.63
2019-01-25T19:04:28.202Z,26.07
2019-01-25T19:06:56.348Z,38.07
2019-01-25T19:09:24.506Z,26.00
2019-01-25T19:11:52.652Z,25.77
2019-01-25T19:14:20.901Z,28.33
2019-01-25T19:16:49.186Z,25.67
2019-01-25T19:19:17.385Z,29.53
2019-01-25T19:21:45.589Z,31.60
2019-01-25T19:24:13.836Z,25.43
2019-01-25T19:26:42.113Z,29.30
2019-01-25T19:29:10.263Z,27.77
2019-01-25T19:31:38.466Z,28.03
2019-01-25T19:34:06.782Z,27.27
2019-01-25T19:36:34.978Z,26.83
2019-01-25T19:39:05.096Z,24.03
2019-01-25T19:41:33.282Z,27.23
2019-01-25T19:44:01.482Z,25.57
2019-01-25T19:46:29.648Z,26.93
2019-01-25T19:48:57.887Z,26.93
2019-01-25T19:51:26.080Z,21.97
2019-01-25T19:53:54.228Z,23.80
2019-01-25T19:56:22.490Z,18.57
2019-01-25T19:58:50.655Z,21.60
2019-01-25T20:01:18.882Z,21.60
2019-01-25T20:03:47.033Z,20.30
2019-01-25T20:06:15.253Z,25.77
2019-01-25T20:08:43.402Z,22.87
2019-01-25T20:11:11.530Z,17.57
2019-01-25T20:13:41.009Z,15.33
2019-01-25T20:16:09.315Z,15.67
2019-01-25T20:18:37.488Z,16.60
2019-01-25T20:21:05.644Z,12.40
2019-01-25T20:23:33.997Z,18.10
2019-01-25T20:26:02.235Z,15.93
2019-01-25T20:28:30.484Z,16.93
2019-01-25T20:30:58.670Z,14.03
2019-01-25T20:33:26.851Z,11.27
2019-01-25T20:35:55.080Z,11.07
2019-01-25T20:38:23.251Z,16.43
2019-01-25T20:40:51.429Z,13.80
2019-01-25T20:43:23.234Z,14.00
2019-01-25T20:45:51.413Z,16.10
2019-01-25T20:48:20.553Z,16.60
2019-01-25T20:50:49.041Z,16.77
2019-01-25T20:53:17.380Z,17.60
2019-01-25T20:55:45.643Z,16.67
2019-01-25T20:58:13.853Z,16.67
2019-01-25T21:00:42.186Z,9.20
2019-01-25T21:03:12.125Z,17.87
2019-01-25T21:05:40.590Z,16.33
2019-01-25T21:08:09.807Z,12.83
2019-01-25T21:10:38.270Z,18.40
2019-01-25T21:13:06.483Z,14.53
2019-01-25T21:15:35.676Z,17.43
2019-01-25T21:18:04.705Z,10.17
2019-01-25T21:20:34.414Z,13.57
2019-01-25T21:23:02.614Z,18.37
2019-01-25T21:25:32.435Z,14.73
2019-01-25T21:28:01.366Z,14.83
2019-01-25T21:30:31.169Z,16.20
2019-01-25T21:32:59.433Z,16.33
2019-01-25T21:35:27.758Z,17.20
2019-01-25T21:37:56.161Z,16.40
2019-01-25T21:40:25.730Z,15.47
2019-01-25T21:42:54.097Z,16.00
2019-01-25T21:45:23.650Z,15.83
2019-01-25T21:47:52.223Z,16.67
2019-01-25T21:50:21.984Z,14.87
2019-01-25T21:52:50.282Z,19.30
2019-01-25T21:55:18.456Z,17.37
2019-01-25T21:57:46.594Z,17.93
2019-01-25T22:00:28.749Z,17.50
2019-01-25T22:02:57.522Z,18.77
2019-01-25T22:05:25.669Z,17.67
2019-01-25T22:07:53.845Z,18.47
2019-01-25T22:10:23.985Z,16.20
2019-01-25T22:12:52.409Z,17.20
2019-01-25T22:15:20.563Z,15.67
2019-01-25T22:17:48.733Z,17.57
2019-01-25T22:20:18.142Z,17.47
2019-01-25T22:22:46.575Z,17.83
2019-01-25T22:25:15.036Z,16.33
2019-01-25T22:27:44.289Z,18.53
2019-01-25T22:30:14.211Z,15.47
2019-01-25T22:32:42.393Z,17.50
2019-01-25T22:35:10.567Z,16.90
2019-01-25T22:37:39.653Z,15.93
2019-01-25T22:40:12.755Z,14.13
2019-01-25T22:42:41.074Z,17.67
2019-01-25T22:45:10.760Z,16.10
2019-01-25T22:47:38.890Z,16.37
2019-01-25T22:50:11.613Z,17.20
2019-01-25T22:52:39.757Z,16.17
2019-01-25T22:55:09.578Z,15.40
2019-01-25T22:57:37.768Z,18.50
2019-01-25T23:00:16.381Z,16.00
2019-01-25T23:02:44.513Z,17.90
2019-01-25T23:05:20.173Z,18.27
2019-01-25T23:07:48.333Z,16.40
2019-01-25T23:10:16.659Z,18.73
2019-01-25T23:12:44.756Z,20.50
2019-01-25T23:15:13.193Z,19.00
2019-01-25T23:17:41.312Z,19.07
2019-01-25T23:22:39.437Z,20.37
2019-01-25T23:25:07.780Z,19.97
2019-01-25T23:27:35.900Z,19.50
2019-01-25T23:30:05.589Z,20.23
2019-01-25T23:32:33.712Z,17.73
2019-01-25T23:35:01.913Z,18.43
2019-01-25T23:37:30.181Z,19.23
2019-01-25T23:39:58.353Z,21.57
2019-01-25T23:42:26.573Z,21.30
2019-01-25T23:44:54.849Z,20.30
2019-01-25T23:47:23.037Z,19.87
2019-01-25T23:49:51.189Z,19.60
2019-01-25T23:52:19.321Z,20.33
2019-01-25T23:54:47.490Z,21.10
2019-01-25T23:57:15.649Z,19.27
2019-01-25T23:59:43.771Z,19.30
